createdAt,value
2018-05-07T00:01:57.883Z,19.98
2018-05-07T00:04:23.685Z,19.97
2018-05-07T00:06:49.639Z,19.96
2018-05-07T00:09:15.490Z,19.91
2018-05-07T00:11:41.438Z,20.00
2018-05-07T00:14:07.223Z,19.98
2018-05-07T00:16:33.041Z,19.86
2018-05-07T00:18:58.850Z,19.93
2018-05-07T00:21:24.659Z,19.93
2018-05-07T00:23:50.460Z,19.95
2018-05-07T00:26:16.267Z,19.92
2018-05-07T00:28:42.073Z,19.93
2018-05-07T00:31:07.880Z,19.87
2018-05-07T00:33:33.684Z,19.99
2018-05-07T00:35:59.579Z,19.94
2018-05-07T00:38:25.381Z,19.91
2018-05-07T00:40:51.220Z,19.86
2018-05-07T00:43:17.025Z,19.95
2018-05-07T00:45:42.837Z,19.84
2018-05-07T00:48:08.648Z,19.89
2018-05-07T00:50:34.448Z,19.87
2018-05-07T00:53:01.169Z,19.87
2018-05-07T00:55:26.976Z,19.84
2018-05-07T00:57:52.777Z,19.84
2018-05-07T01:00:18.580Z,19.84
2018-05-07T01:02:44.413Z,19.87
2018-05-07T01:05:10.221Z,19.80
2018-05-07T01:07:36.055Z,19.79
2018-05-07T01:10:01.944Z,19.85
2018-05-07T01:12:27.792Z,19.78
2018-05-07T01:14:53.603Z,19.88
2018-05-07T01:17:19.412Z,19.81
2018-05-07T01:19:45.251Z,19.84
2018-05-07T01:22:11.057Z,19.79
2018-05-07T01:24:37.829Z,19.77
2018-05-07T01:27:03.632Z,19.83
2018-05-07T01:29:29.452Z,19.86
2018-05-07T01:31:55.257Z,19.81
2018-05-07T01:34:21.065Z,19.83
2018-05-07T01:36:46.869Z,19.80
2018-05-07T01:39:13.095Z,19.89
2018-05-07T01:41:38.933Z,19.86
2018-05-07T01:44:04.747Z,19.81
2018-05-07T01:46:30.556Z,19.88
2018-05-07T01:48:56.365Z,19.78
2018-05-07T01:51:22.221Z,19.77
2018-05-07T01:53:48.024Z,19.85
2018-05-07T01:56:13.856Z,19.80
2018-05-07T01:58:39.712Z,19.87
2018-05-07T02:01:05.525Z,19.78
2018-05-07T02:03:31.336Z,19.83
2018-05-07T02:05:57.201Z,19.75
2018-05-07T02:08:23.004Z,19.83
2018-05-07T02:10:48.848Z,19.73
2018-05-07T02:13:14.672Z,19.74
2018-05-07T02:15:41.437Z,19.86
2018-05-07T02:18:07.240Z,19.90
2018-05-07T02:20:34.012Z,19.76
2018-05-07T02:22:59.818Z,19.80
2018-05-07T02:25:25.620Z,19.76
2018-05-07T02:27:51.456Z,19.72
2018-05-07T02:30:17.261Z,19.71
2018-05-07T02:32:43.093Z,19.68
2018-05-07T02:35:08.907Z,19.69
2018-05-07T02:37:34.717Z,19.71
2018-05-07T02:40:00.528Z,19.68
2018-05-07T02:42:26.369Z,19.75
2018-05-07T02:44:52.181Z,19.79
2018-05-07T02:47:17.985Z,19.83
2018-05-07T02:49:43.784Z,19.66
2018-05-07T02:52:09.593Z,19.77
2018-05-07T02:54:35.398Z,19.73
2018-05-07T02:57:01.237Z,19.71
2018-05-07T02:59:27.041Z,19.79
2018-05-07T03:01:52.845Z,19.72
2018-05-07T03:04:18.665Z,19.68
2018-05-07T03:06:44.478Z,19.73
2018-05-07T03:09:10.286Z,19.79
2018-05-07T03:11:36.223Z,19.76
2018-05-07T03:14:02.069Z,19.75
2018-05-07T03:16:27.988Z,19.68
2018-05-07T03:18:53.791Z,19.72
2018-05-07T03:21:19.592Z,19.76
2018-05-07T03:23:45.396Z,19.78
2018-05-07T03:26:11.244Z,19.72
2018-05-07T03:28:37.048Z,19.64
2018-05-07T03:31:02.856Z,19.74
2018-05-07T03:33:28.693Z,19.71
2018-05-07T03:35:54.620Z,19.74
2018-05-07T03:38:20.421Z,19.60
2018-05-07T03:40:46.228Z,19.68
2018-05-07T03:43:12.042Z,19.60
2018-05-07T03:45:37.848Z,19.68
2018-05-07T03:48:03.656Z,19.69
2018-05-07T03:50:29.463Z,19.69
2018-05-07T03:52:55.264Z,19.65
2018-05-07T03:55:21.069Z,19.68
2018-05-07T03:57:46.919Z,19.68
2018-05-07T04:00:12.813Z,19.64
2018-05-07T04:02:38.637Z,19.68
2018-05-07T04:05:04.440Z,19.74
2018-05-07T04:07:30.244Z,19.66
2018-05-07T04:09:56.066Z,19.67
2018-05-07T04:12:21.901Z,19.75
2018-05-07T04:14:47.733Z,19.64
2018-05-07T04:17:20.039Z,19.66
2018-05-07T04:19:52.055Z,19.59
2018-05-07T04:22:24.166Z,19.65
2018-05-07T04:24:50.013Z,19.59
2018-05-07T04:27:15.821Z,19.67
2018-05-07T04:29:41.661Z,19.65
2018-05-07T04:32:07.468Z,19.68
2018-05-07T04:34:33.301Z,19.68
2018-05-07T04:36:59.104Z,19.75
2018-05-07T04:39:24.909Z,19.69
2018-05-07T04:41:50.733Z,19.69
2018-05-07T04:44:16.539Z,19.73
2018-05-07T04:46:42.349Z,19.72
2018-05-07T04:49:08.165Z,19.63
2018-05-07T04:51:33.976Z,19.71
2018-05-07T04:53:59.785Z,19.72
2018-05-07T04:56:25.589Z,19.80
2018-05-07T04:58:51.537Z,19.82
2018-05-07T05:01:17.413Z,19.85
2018-05-07T05:03:43.216Z,19.76
2018-05-07T05:06:09.021Z,19.84
2018-05-07T05:08:34.829Z,19.88
2018-05-07T05:11:00.639Z,19.93
2018-05-07T05:13:26.453Z,20.03
2018-05-07T05:15:52.258Z,20.09
2018-05-07T05:18:18.060Z,20.13
2018-05-07T05:20:43.945Z,20.14
2018-05-07T05:23:09.740Z,20.16
2018-05-07T05:25:35.588Z,20.22
2018-05-07T05:28:01.389Z,20.20
2018-05-07T05:30:27.192Z,20.14
2018-05-07T05:32:52.980Z,20.19
2018-05-07T05:35:18.782Z,20.22
2018-05-07T05:37:44.589Z,20.31
2018-05-07T05:40:10.401Z,20.32
2018-05-07T05:42:36.200Z,20.26
2018-05-07T05:45:02.010Z,20.26
2018-05-07T05:47:27.804Z,20.32
2018-05-07T05:49:53.625Z,20.38
2018-05-07T05:52:19.433Z,20.38
2018-05-07T05:54:50.341Z,20.39
2018-05-07T05:57:16.141Z,20.43
2018-05-07T05:59:41.944Z,20.51
2018-05-07T06:02:07.748Z,20.49
2018-05-07T06:04:33.551Z,20.49
2018-05-07T06:06:59.348Z,20.53
2018-05-07T06:09:25.155Z,20.54
2018-05-07T06:11:50.957Z,20.52
2018-05-07T06:14:16.762Z,20.53
2018-05-07T06:16:42.643Z,20.54
2018-05-07T06:19:08.403Z,20.52
2018-05-07T06:21:34.205Z,20.51
2018-05-07T06:24:00.013Z,20.53
2018-05-07T06:26:25.817Z,20.49
2018-05-07T06:28:51.773Z,20.49
2018-05-07T06:31:17.578Z,20.49
2018-05-07T06:33:43.380Z,20.55
2018-05-07T06:36:09.205Z,20.51
2018-05-07T06:38:35.016Z,20.52
2018-05-07T06:41:00.857Z,20.51
2018-05-07T06:43:26.738Z,20.55
2018-05-07T06:45:52.595Z,20.47
2018-05-07T06:48:18.394Z,20.53
2018-05-07T06:50:44.197Z,20.45
2018-05-07T06:53:10.002Z,20.53
2018-05-07T06:55:35.803Z,20.54
2018-05-07T06:58:01.609Z,20.53
2018-05-07T07:00:27.400Z,20.56
2018-05-07T07:02:53.373Z,20.54
2018-05-07T07:05:19.065Z,20.55
2018-05-07T07:07:44.896Z,20.54
2018-05-07T07:10:10.693Z,20.55
2018-05-07T07:12:36.537Z,20.53
2018-05-07T07:15:02.348Z,20.54
2018-05-07T07:17:28.177Z,20.52
2018-05-07T07:19:53.976Z,20.50
2018-05-07T07:22:19.773Z,20.52
2018-05-07T07:24:45.636Z,20.52
2018-05-07T07:27:11.438Z,20.54
2018-05-07T07:29:37.245Z,20.55
2018-05-07T07:32:03.068Z,20.58
2018-05-07T07:34:28.868Z,20.49
2018-05-07T07:36:54.671Z,20.54
2018-05-07T07:39:20.508Z,20.52
2018-05-07T07:41:46.313Z,20.53
2018-05-07T07:44:20.698Z,20.53
2018-05-07T07:46:56.640Z,20.52
2018-05-07T07:49:33.601Z,20.55
2018-05-07T07:51:59.794Z,20.54
2018-05-07T07:54:25.597Z,20.43
2018-05-07T07:56:51.439Z,20.54
2018-05-07T07:59:17.252Z,20.54
2018-05-07T08:01:43.164Z,20.49
2018-05-07T08:04:08.937Z,20.57
2018-05-07T08:06:35.712Z,20.52
2018-05-07T08:09:01.565Z,20.50
2018-05-07T08:11:27.396Z,20.48
2018-05-07T08:13:53.200Z,20.48
2018-05-07T08:16:19.001Z,20.56
2018-05-07T08:18:44.808Z,20.55
2018-05-07T08:21:10.612Z,20.54
2018-05-07T08:23:36.413Z,20.54
2018-05-07T08:26:02.303Z,20.54
2018-05-07T08:28:28.113Z,20.47
2018-05-07T08:30:53.916Z,20.55
2018-05-07T08:33:19.708Z,20.54
2018-05-07T08:35:45.529Z,20.55
2018-05-07T08:38:11.499Z,20.42
2018-05-07T08:40:37.301Z,20.51
2018-05-07T08:43:03.092Z,20.51
2018-05-07T08:45:28.893Z,20.48
2018-05-07T08:47:55.694Z,20.48
2018-05-07T08:50:21.496Z,20.50
2018-05-07T08:52:47.323Z,20.49
2018-05-07T08:55:13.134Z,20.57
2018-05-07T08:57:38.937Z,20.55
2018-05-07T09:00:04.785Z,20.50
2018-05-07T09:02:30.607Z,20.57
2018-05-07T09:04:56.413Z,20.47
2018-05-07T09:07:22.218Z,20.57
2018-05-07T09:09:48.024Z,20.56
2018-05-07T09:12:13.856Z,20.48
2018-05-07T09:14:39.656Z,20.46
2018-05-07T09:17:05.492Z,20.50
2018-05-07T09:19:31.308Z,20.44
2018-05-07T09:21:57.117Z,20.54
2018-05-07T09:24:22.912Z,20.44
2018-05-07T09:26:48.709Z,20.37
2018-05-07T09:29:14.528Z,20.39
2018-05-07T09:31:40.334Z,20.48
2018-05-07T09:34:06.189Z,20.48
2018-05-07T09:36:32.039Z,20.55
2018-05-07T09:38:57.836Z,20.58
2018-05-07T09:41:23.637Z,20.45
2018-05-07T09:43:49.434Z,20.50
2018-05-07T09:46:15.249Z,20.45
2018-05-07T09:48:41.116Z,20.56
2018-05-07T09:51:07.194Z,20.47
2018-05-07T09:53:33.110Z,20.42
2018-05-07T09:55:58.917Z,20.42
2018-05-07T09:58:24.762Z,20.44
2018-05-07T10:00:50.565Z,20.43
2018-05-07T10:03:16.496Z,20.25
2018-05-07T10:05:43.264Z,20.43
2018-05-07T10:08:09.112Z,20.38
2018-05-07T10:10:34.988Z,20.44
2018-05-07T10:13:03.921Z,20.33
2018-05-07T10:15:29.732Z,20.40
2018-05-07T10:17:55.533Z,20.46
2018-05-07T10:20:21.333Z,20.40
2018-05-07T10:22:47.169Z,20.51
2018-05-07T10:25:13.000Z,20.39
2018-05-07T10:27:38.805Z,20.43
2018-05-07T10:30:04.658Z,20.48
2018-05-07T10:32:30.550Z,20.33
2018-05-07T10:34:56.413Z,20.33
2018-05-07T10:37:22.213Z,20.39
2018-05-07T10:39:48.120Z,20.28
2018-05-07T10:42:13.927Z,20.35
2018-05-07T10:44:39.777Z,20.29
2018-05-07T10:47:05.588Z,20.41
2018-05-07T10:49:31.399Z,20.42
2018-05-07T10:51:57.249Z,20.46
2018-05-07T10:54:23.052Z,20.38
2018-05-07T10:56:48.863Z,20.44
2018-05-07T10:59:14.674Z,20.37
2018-05-07T11:01:40.600Z,20.38
2018-05-07T11:04:06.437Z,20.42
2018-05-07T11:06:32.280Z,20.39
2018-05-07T11:08:58.121Z,20.43
2018-05-07T11:11:23.937Z,20.54
2018-05-07T11:13:49.790Z,20.32
2018-05-07T11:16:15.597Z,20.42
2018-05-07T11:18:42.561Z,20.45
2018-05-07T11:21:08.392Z,20.32
2018-05-07T11:23:34.203Z,20.35
2018-05-07T11:26:00.008Z,20.38
2018-05-07T11:28:25.821Z,20.38
2018-05-07T11:30:51.637Z,20.45
2018-05-07T11:33:17.481Z,20.45
2018-05-07T11:35:43.300Z,20.50
2018-05-07T11:38:09.120Z,20.47
2018-05-07T11:40:34.973Z,20.47
2018-05-07T11:43:01.605Z,20.50
2018-05-07T11:45:27.420Z,20.43
2018-05-07T11:47:53.233Z,20.45
2018-05-07T11:50:19.043Z,20.43
2018-05-07T11:52:44.893Z,20.39
2018-05-07T11:55:10.706Z,20.40
2018-05-07T11:57:36.573Z,20.44
2018-05-07T12:00:02.394Z,20.42
2018-05-07T12:02:28.324Z,20.42
2018-05-07T12:04:54.085Z,20.49
2018-05-07T12:07:19.897Z,20.52
2018-05-07T12:09:45.704Z,20.54
2018-05-07T12:12:11.545Z,20.46
2018-05-07T12:14:37.360Z,20.45
2018-05-07T12:17:03.165Z,20.43
2018-05-07T12:19:28.981Z,20.45
2018-05-07T12:21:54.799Z,20.39
2018-05-07T12:24:20.632Z,20.31
2018-05-07T12:26:46.446Z,20.50
2018-05-07T12:29:12.260Z,20.44
2018-05-07T12:31:38.202Z,20.42
2018-05-07T12:34:03.933Z,20.36
2018-05-07T12:36:29.741Z,20.42
2018-05-07T12:38:55.557Z,20.42
2018-05-07T12:41:21.432Z,20.41
2018-05-07T12:43:47.260Z,20.41
2018-05-07T12:46:13.122Z,20.28
2018-05-07T12:48:38.934Z,20.36
2018-05-07T12:51:04.745Z,20.41
2018-05-07T12:53:30.553Z,20.42
2018-05-07T12:55:57.280Z,20.43
2018-05-07T12:58:23.089Z,20.43
2018-05-07T13:00:48.940Z,20.37
2018-05-07T13:03:14.781Z,20.41
2018-05-07T13:05:40.636Z,20.39
2018-05-07T13:08:06.436Z,20.31
2018-05-07T13:10:32.393Z,20.47
2018-05-07T13:12:58.216Z,20.47
2018-05-07T13:15:24.043Z,20.42
2018-05-07T13:17:49.850Z,20.44
2018-05-07T13:20:15.660Z,20.43
2018-05-07T13:22:41.473Z,20.25
2018-05-07T13:25:07.413Z,20.42
2018-05-07T13:27:33.220Z,20.44
2018-05-07T13:29:59.024Z,20.49
2018-05-07T13:32:24.832Z,20.46
2018-05-07T13:34:50.640Z,20.43
2018-05-07T13:37:16.452Z,20.44
2018-05-07T13:39:42.265Z,20.52
2018-05-07T13:42:08.080Z,20.47
2018-05-07T13:44:33.888Z,20.42
2018-05-07T13:46:59.738Z,20.47
2018-05-07T13:49:25.545Z,20.47
2018-05-07T13:51:51.354Z,20.46
2018-05-07T13:54:17.283Z,20.39
2018-05-07T13:56:43.092Z,20.46
2018-05-07T13:59:08.918Z,20.46
2018-05-07T14:01:34.752Z,20.45
2018-05-07T14:04:01.569Z,20.45
2018-05-07T14:06:27.392Z,20.43
2018-05-07T14:08:53.204Z,20.41
2018-05-07T14:11:19.073Z,20.45
2018-05-07T14:13:44.889Z,20.43
2018-05-07T14:16:10.704Z,20.36
2018-05-07T14:18:37.533Z,20.40
2018-05-07T14:21:03.417Z,20.26
2018-05-07T14:23:29.265Z,20.42
2018-05-07T14:25:55.103Z,20.33
2018-05-07T14:28:20.924Z,20.35
2018-05-07T14:30:47.732Z,20.34
2018-05-07T14:33:13.649Z,20.43
2018-05-07T14:35:39.460Z,20.53
2018-05-07T14:38:05.269Z,20.52
2018-05-07T14:40:31.073Z,20.47
2018-05-07T14:42:56.880Z,20.41
2018-05-07T14:45:22.704Z,20.45
2018-05-07T14:47:48.511Z,20.39
2018-05-07T14:50:14.403Z,20.41
2018-05-07T14:52:40.168Z,20.41
2018-05-07T14:55:05.978Z,20.43
2018-05-07T14:57:31.781Z,20.43
2018-05-07T14:59:57.589Z,20.34
2018-05-07T15:02:23.399Z,20.36
2018-05-07T15:04:49.209Z,20.39
2018-05-07T15:07:15.009Z,20.35
2018-05-07T15:09:40.813Z,20.35
2018-05-07T15:12:06.620Z,20.36
2018-05-07T15:14:32.517Z,20.35
2018-05-07T15:16:58.328Z,20.41
2018-05-07T15:19:24.137Z,20.35
2018-05-07T15:21:49.966Z,20.32
2018-05-07T15:24:15.772Z,20.37
2018-05-07T15:26:41.585Z,20.32
2018-05-07T15:29:07.451Z,20.36
2018-05-07T15:31:33.258Z,20.42
2018-05-07T15:33:59.071Z,20.34
2018-05-07T15:36:24.987Z,20.40
2018-05-07T15:38:50.780Z,20.36
2018-05-07T15:41:16.580Z,20.30
2018-05-07T15:43:42.496Z,20.38
2018-05-07T15:46:08.238Z,20.44
2018-05-07T15:48:34.044Z,20.43
2018-05-07T15:50:59.850Z,20.37
2018-05-07T15:53:25.696Z,20.32
2018-05-07T15:55:51.590Z,20.35
2018-05-07T15:58:17.475Z,20.35
2018-05-07T16:00:43.316Z,20.33
2018-05-07T16:03:09.229Z,20.36
2018-05-07T16:05:35.138Z,20.33
2018-05-07T16:08:01.064Z,20.38
2018-05-07T16:10:26.885Z,20.41
2018-05-07T16:12:52.721Z,20.37
2018-05-07T16:15:18.647Z,20.37
2018-05-07T16:17:44.416Z,20.34
2018-05-07T16:20:10.235Z,20.38
2018-05-07T16:22:36.103Z,20.41
2018-05-07T16:25:01.923Z,20.36
2018-05-07T16:27:27.728Z,20.42
2018-05-07T16:29:53.532Z,20.36
2018-05-07T16:32:19.400Z,20.42
2018-05-07T16:34:45.214Z,20.38
2018-05-07T16:37:11.031Z,20.37
2018-05-07T16:39:36.840Z,20.36
2018-05-07T16:42:02.645Z,20.36
2018-05-07T16:44:28.481Z,20.34
2018-05-07T16:46:54.284Z,20.35
2018-05-07T16:49:20.090Z,20.38
2018-05-07T16:51:45.904Z,20.35
2018-05-07T16:54:11.748Z,20.34
2018-05-07T16:56:37.554Z,20.29
2018-05-07T16:59:03.360Z,20.37
2018-05-07T17:01:29.165Z,20.35
2018-05-07T17:03:54.969Z,20.34
2018-05-07T17:06:20.781Z,20.33
2018-05-07T17:08:46.671Z,20.33
2018-05-07T17:11:12.485Z,20.32
2018-05-07T17:13:38.372Z,20.38
2018-05-07T17:16:04.193Z,20.32
2018-05-07T17:18:29.998Z,20.35
2018-05-07T17:20:55.814Z,20.29
2018-05-07T17:23:21.657Z,20.30
2018-05-07T17:25:47.600Z,20.32
2018-05-07T17:28:13.320Z,20.31
2018-05-07T17:30:39.121Z,20.26
2018-05-07T17:33:04.925Z,20.30
2018-05-07T17:35:30.786Z,20.27
2018-05-07T17:37:56.600Z,20.31
2018-05-07T17:40:22.425Z,20.30
2018-05-07T17:42:48.234Z,20.26
2018-05-07T17:45:17.980Z,20.31
2018-05-07T17:47:50.026Z,20.29
2018-05-07T17:50:15.831Z,20.23
2018-05-07T17:52:41.642Z,20.30
2018-05-07T17:55:07.449Z,20.31
2018-05-07T17:57:33.261Z,20.28
2018-05-07T17:59:59.140Z,20.27
2018-05-07T18:02:24.917Z,20.33
2018-05-07T18:04:50.756Z,20.33
2018-05-07T18:07:16.605Z,20.30
2018-05-07T18:09:42.908Z,20.28
2018-05-07T18:12:08.717Z,20.36
2018-05-07T18:14:34.526Z,20.30
2018-05-07T18:17:00.369Z,20.31
2018-05-07T18:19:26.187Z,20.34
2018-05-07T18:21:52.234Z,20.28
2018-05-07T18:24:18.145Z,20.30
2018-05-07T18:26:48.345Z,20.27
2018-05-07T18:29:14.157Z,20.30
2018-05-07T18:31:40.106Z,20.34
2018-05-07T18:34:05.924Z,20.33
2018-05-07T18:36:31.962Z,20.28
2018-05-07T18:38:57.834Z,20.29
2018-05-07T18:41:23.645Z,20.30
2018-05-07T18:43:49.464Z,20.31
2018-05-07T18:46:15.274Z,20.40
2018-05-07T18:48:41.106Z,20.47
2018-05-07T18:51:07.082Z,20.62
2018-05-07T18:53:32.896Z,20.73
2018-05-07T18:55:58.710Z,20.82
2018-05-07T18:58:24.517Z,20.83
2018-05-07T19:00:50.406Z,20.88
2018-05-07T19:03:16.229Z,20.93
2018-05-07T19:05:42.101Z,20.97
2018-05-07T19:08:07.907Z,20.98
2018-05-07T19:10:33.888Z,20.99
2018-05-07T19:12:59.758Z,21.01
2018-05-07T19:15:25.564Z,21.01
2018-05-07T19:17:51.518Z,21.03
2018-05-07T19:20:17.496Z,21.04
2018-05-07T19:22:43.661Z,21.00
2018-05-07T19:25:09.628Z,21.01
2018-05-07T19:27:35.567Z,21.00
2018-05-07T19:30:01.395Z,20.98
2018-05-07T19:32:27.208Z,20.97
2018-05-07T19:34:53.013Z,20.96
2018-05-07T19:37:18.829Z,20.95
2018-05-07T19:39:44.804Z,20.94
2018-05-07T19:42:10.671Z,20.94
2018-05-07T19:44:36.482Z,20.92
2018-05-07T19:47:02.395Z,20.91
2018-05-07T19:49:28.202Z,20.91
2018-05-07T19:51:54.006Z,20.87
2018-05-07T19:54:19.828Z,20.90
2018-05-07T19:56:45.708Z,20.90
2018-05-07T19:59:11.545Z,20.89
2018-05-07T20:01:37.398Z,20.86
2018-05-07T20:04:03.214Z,20.83
2018-05-07T20:06:29.091Z,20.84
2018-05-07T20:08:54.896Z,20.86
2018-05-07T20:11:20.704Z,20.85
2018-05-07T20:13:46.512Z,20.81
2018-05-07T20:16:12.357Z,20.82
2018-05-07T20:18:38.204Z,20.83
2018-05-07T20:21:04.012Z,20.80
2018-05-07T20:23:30.017Z,20.79
2018-05-07T20:25:55.821Z,20.76
2018-05-07T20:28:21.694Z,20.74
2018-05-07T20:30:47.500Z,20.70
2018-05-07T20:33:13.395Z,20.71
2018-05-07T20:35:39.152Z,20.75
2018-05-07T20:38:04.960Z,20.71
2018-05-07T20:40:30.764Z,20.71
2018-05-07T20:42:56.572Z,20.71
2018-05-07T20:45:22.381Z,20.71
2018-05-07T20:47:48.194Z,20.67
2018-05-07T20:50:14.048Z,20.68
2018-05-07T20:52:39.869Z,20.70
2018-05-07T20:55:05.720Z,20.70
2018-05-07T20:57:31.544Z,20.68
2018-05-07T20:59:57.369Z,20.63
2018-05-07T21:02:23.172Z,20.64
2018-05-07T21:04:49.112Z,20.60
2018-05-07T21:07:14.925Z,20.59
2018-05-07T21:09:40.866Z,20.57
2018-05-07T21:12:06.705Z,20.60
2018-05-07T21:14:32.533Z,20.64
2018-05-07T21:16:58.448Z,20.62
2018-05-07T21:19:24.260Z,20.64
2018-05-07T21:21:50.076Z,20.65
2018-05-07T21:24:16.219Z,20.65
2018-05-07T21:26:42.040Z,20.64
2018-05-07T21:29:07.853Z,20.63
2018-05-07T21:31:33.657Z,20.64
2018-05-07T21:33:59.466Z,20.62
2018-05-07T21:36:25.806Z,20.64
2018-05-07T21:38:51.613Z,20.56
2018-05-07T21:41:17.540Z,20.58
2018-05-07T21:43:43.354Z,20.57
2018-05-07T21:46:09.720Z,20.52
2018-05-07T21:48:35.524Z,20.48
2018-05-07T21:51:01.329Z,20.57
2018-05-07T21:53:27.142Z,20.52
2018-05-07T21:55:52.959Z,20.54
2018-05-07T21:58:18.849Z,20.51
2018-05-07T22:00:44.657Z,20.51
2018-05-07T22:03:10.637Z,20.51
2018-05-07T22:05:36.480Z,20.49
2018-05-07T22:08:02.310Z,20.49
2018-05-07T22:10:28.152Z,20.45
2018-05-07T22:12:53.956Z,20.51
2018-05-07T22:15:19.760Z,20.43
2018-05-07T22:17:47.031Z,20.43
2018-05-07T22:20:13.002Z,20.45
2018-05-07T22:22:38.911Z,20.44
2018-05-07T22:25:04.713Z,20.45
2018-05-07T22:27:30.566Z,20.44
2018-05-07T22:29:56.379Z,20.42
2018-05-07T22:32:22.226Z,20.37
2018-05-07T22:34:48.029Z,20.38
2018-05-07T22:37:13.902Z,20.35
2018-05-07T22:39:40.411Z,20.36
2018-05-07T22:42:06.217Z,20.40
2018-05-07T22:44:32.060Z,20.38
2018-05-07T22:46:57.868Z,20.37
2018-05-07T22:49:23.718Z,20.44
2018-05-07T22:51:49.519Z,20.41
2018-05-07T22:54:15.369Z,20.39
2018-05-07T22:56:41.187Z,20.27
2018-05-07T22:59:07.069Z,20.29
2018-05-07T23:01:32.880Z,20.29
2018-05-07T23:03:58.685Z,20.28
2018-05-07T23:06:24.529Z,20.30
2018-05-07T23:08:50.341Z,20.27
2018-05-07T23:11:16.149Z,20.28
2018-05-07T23:13:42.002Z,20.24
2018-05-07T23:16:07.954Z,20.30
2018-05-07T23:18:33.762Z,20.30
2018-05-07T23:20:59.622Z,20.28
2018-05-07T23:23:25.424Z,20.24
2018-05-07T23:25:51.293Z,20.25
2018-05-07T23:28:17.100Z,20.22
2018-05-07T23:30:42.981Z,20.24
2018-05-07T23:33:08.780Z,20.25
2018-05-07T23:35:34.593Z,20.25
2018-05-07T23:38:00.472Z,20.23
2018-05-07T23:40:26.282Z,20.23
2018-05-07T23:42:52.089Z,20.20
2018-05-07T23:45:17.992Z,20.14
2018-05-07T23:47:43.797Z,20.22
2018-05-07T23:50:09.605Z,20.14
2018-05-07T23:52:35.413Z,20.09
2018-05-07T23:55:01.223Z,20.09
2018-05-07T23:57:27.025Z,20.09
2018-05-07T23:59:52.887Z,20.07
